createdAt,value
2023-05-21T00:01:01.341Z,13.31
2023-05-21T00:04:15.813Z,13.25
2023-05-21T00:07:21.210Z,13.16
2023-05-21T00:10:24.159Z,13.06
2023-05-21T00:13:27.156Z,12.94
2023-05-21T00:16:30.103Z,12.83
2023-05-21T00:19:36.183Z,12.75
2023-05-21T00:22:40.417Z,12.66
2023-05-21T00:25:43.274Z,12.57
2023-05-21T00:28:46.108Z,12.48
2023-05-21T00:31:50.524Z,12.42
2023-05-21T00:34:53.546Z,12.36
2023-05-21T00:37:57.415Z,12.32
2023-05-21T00:41:02.962Z,12.28
2023-05-21T00:44:07.354Z,12.23
2023-05-21T00:47:10.361Z,12.20
2023-05-21T00:50:15.258Z,12.17
2023-05-21T00:53:19.576Z,12.16
2023-05-21T00:56:24.169Z,12.16
2023-05-21T00:59:36.062Z,12.18
2023-05-21T01:02:39.261Z,12.18
2023-05-21T01:05:45.265Z,12.16
2023-05-21T01:08:48.178Z,12.14
2023-05-21T01:11:53.247Z,12.13
2023-05-21T01:14:57.767Z,12.11
2023-05-21T01:18:00.886Z,12.08
2023-05-21T01:21:05.224Z,12.05
2023-05-21T01:24:08.222Z,12.02
2023-05-21T01:27:11.093Z,12.00
2023-05-21T01:30:15.373Z,11.97
2023-05-21T01:33:38.238Z,11.94
2023-05-21T01:36:46.644Z,11.90
2023-05-21T01:40:00.265Z,11.86
2023-05-21T01:43:05.859Z,11.81
2023-05-21T01:46:13.143Z,11.76
2023-05-21T01:49:17.893Z,11.71
2023-05-21T01:52:20.798Z,11.66
2023-05-21T01:55:24.915Z,11.63
2023-05-21T01:58:27.982Z,11.59
2023-05-21T02:01:31.277Z,11.54
2023-05-21T02:04:34.267Z,11.50
2023-05-21T02:07:37.637Z,11.46
2023-05-21T02:10:40.795Z,11.42
2023-05-21T02:13:46.195Z,11.42
2023-05-21T02:16:49.253Z,11.44
2023-05-21T02:19:52.548Z,11.42
2023-05-21T02:22:55.793Z,11.41
2023-05-21T02:25:58.991Z,11.43
2023-05-21T02:29:02.738Z,11.42
2023-05-21T02:32:06.114Z,11.40
2023-05-21T02:35:10.823Z,11.37
2023-05-21T02:38:14.117Z,11.33
2023-05-21T02:41:16.946Z,11.32
2023-05-21T02:44:21.001Z,11.29
2023-05-21T02:47:24.367Z,11.30
2023-05-21T02:50:27.331Z,11.32
2023-05-21T02:53:30.264Z,11.35
2023-05-21T02:56:33.202Z,11.38
2023-05-21T02:59:36.052Z,11.41
2023-05-21T03:02:38.979Z,11.43
2023-05-21T03:05:42.026Z,11.43
2023-05-21T03:08:44.877Z,11.44
2023-05-21T03:11:48.451Z,11.45
2023-05-21T03:14:51.549Z,11.46
2023-05-21T03:17:55.740Z,11.49
2023-05-21T03:20:59.165Z,11.55
2023-05-21T03:24:02.978Z,11.62
2023-05-21T03:27:09.293Z,11.75
2023-05-21T03:30:12.713Z,12.16
2023-05-21T03:33:16.512Z,12.89
2023-05-21T03:36:20.219Z,13.71
2023-05-21T03:39:23.129Z,14.55
2023-05-21T03:42:26.281Z,15.37
2023-05-21T03:45:29.133Z,16.16
2023-05-21T03:48:32.023Z,16.96
2023-05-21T03:51:34.829Z,17.79
2023-05-21T03:54:37.796Z,18.72
2023-05-21T03:57:41.431Z,19.53
2023-05-21T04:00:45.611Z,20.12
2023-05-21T04:03:48.702Z,20.63
2023-05-21T04:06:51.876Z,21.31
2023-05-21T04:09:54.712Z,22.07
2023-05-21T04:12:57.558Z,22.89
2023-05-21T04:16:00.752Z,23.69
2023-05-21T04:19:03.927Z,24.48
2023-05-21T04:22:06.813Z,25.22
2023-05-21T04:25:10.120Z,25.85
2023-05-21T04:28:12.903Z,26.37
2023-05-21T04:31:15.854Z,26.92
2023-05-21T04:34:18.957Z,27.49
2023-05-21T04:37:24.733Z,28.02
2023-05-21T04:40:27.677Z,28.17
2023-05-21T04:43:32.197Z,28.08
2023-05-21T04:46:35.442Z,28.22
2023-05-21T04:49:38.422Z,27.75
2023-05-21T04:52:41.437Z,26.60
2023-05-21T04:55:44.307Z,25.35
2023-05-21T04:58:48.239Z,24.04
2023-05-21T05:01:51.090Z,22.81
2023-05-21T05:04:54.019Z,21.73
2023-05-21T05:07:58.334Z,20.92
2023-05-21T05:11:01.207Z,20.34
2023-05-21T05:14:04.070Z,19.92
2023-05-21T05:17:10.027Z,19.61
2023-05-21T05:20:13.070Z,19.37
2023-05-21T05:23:16.006Z,19.16
2023-05-21T05:26:18.946Z,19.14
2023-05-21T05:29:21.925Z,19.22
2023-05-21T05:32:24.878Z,19.32
2023-05-21T05:35:27.796Z,19.50
2023-05-21T05:38:31.386Z,19.65
2023-05-21T05:41:34.410Z,19.74
2023-05-21T05:44:37.279Z,19.83
2023-05-21T05:47:40.276Z,19.88
2023-05-21T05:50:43.378Z,20.00
2023-05-21T05:53:46.223Z,20.15
2023-05-21T05:56:49.050Z,20.34
2023-05-21T05:59:51.925Z,20.49
2023-05-21T06:02:54.867Z,20.58
2023-05-21T06:05:57.970Z,20.74
2023-05-21T06:09:01.135Z,20.92
2023-05-21T06:12:04.969Z,21.05
2023-05-21T06:15:08.561Z,21.11
2023-05-21T06:18:11.854Z,21.21
2023-05-21T06:21:15.015Z,21.30
2023-05-21T06:24:17.888Z,21.35
2023-05-21T06:27:21.025Z,21.38
2023-05-21T06:30:24.305Z,21.48
2023-05-21T06:33:30.198Z,21.59
2023-05-21T06:36:33.516Z,21.60
2023-05-21T06:39:36.492Z,21.55
2023-05-21T06:42:39.887Z,21.55
2023-05-21T06:45:42.868Z,21.59
2023-05-21T06:48:46.740Z,21.67
2023-05-21T06:51:49.755Z,21.71
2023-05-21T06:54:52.874Z,21.75
2023-05-21T06:57:57.908Z,21.80
2023-05-21T07:01:01.596Z,21.89
2023-05-21T07:04:04.821Z,22.01
2023-05-21T07:07:07.732Z,22.08
2023-05-21T07:10:11.139Z,22.18
2023-05-21T07:13:14.147Z,22.31
2023-05-21T07:16:18.119Z,22.38
2023-05-21T07:19:21.348Z,22.36
2023-05-21T07:22:25.955Z,22.31
2023-05-21T07:25:30.729Z,22.31
2023-05-21T07:28:33.685Z,22.30
2023-05-21T07:31:37.610Z,22.23
2023-05-21T07:34:40.599Z,22.22
2023-05-21T07:37:43.716Z,22.22
2023-05-21T07:40:46.602Z,22.17
2023-05-21T07:43:49.674Z,22.13
2023-05-21T07:46:52.537Z,22.11
2023-05-21T07:49:55.624Z,22.05
2023-05-21T07:52:58.886Z,22.02
2023-05-21T07:56:01.938Z,21.96
2023-05-21T07:59:05.058Z,21.94
2023-05-21T08:02:08.134Z,21.96
2023-05-21T08:05:11.159Z,21.99
2023-05-21T08:08:23.736Z,22.06
2023-05-21T08:11:27.094Z,22.10
2023-05-21T08:14:30.055Z,22.08
2023-05-21T08:17:33.016Z,22.04
2023-05-21T08:20:36.140Z,22.07
2023-05-21T08:23:39.066Z,22.16
2023-05-21T08:26:41.940Z,22.28
2023-05-21T08:29:45.336Z,22.38
2023-05-21T08:32:49.393Z,22.51
2023-05-21T08:35:52.355Z,22.57
2023-05-21T08:38:55.291Z,22.53
2023-05-21T08:42:12.155Z,22.51
2023-05-21T08:45:21.298Z,22.58
2023-05-21T08:48:24.671Z,22.64
2023-05-21T08:51:28.472Z,22.64
2023-05-21T08:54:31.541Z,22.65
2023-05-21T08:57:34.964Z,22.80
2023-05-21T09:00:37.884Z,22.91
2023-05-21T09:03:41.321Z,22.96
2023-05-21T09:06:45.079Z,23.01
2023-05-21T09:09:55.460Z,23.03
2023-05-21T09:12:59.526Z,23.03
2023-05-21T09:16:02.386Z,23.08
2023-05-21T09:19:05.494Z,23.25
2023-05-21T09:22:08.553Z,23.45
2023-05-21T09:25:13.410Z,23.50
2023-05-21T09:28:19.295Z,23.57
2023-05-21T09:31:24.213Z,23.65
2023-05-21T09:34:28.189Z,23.64
2023-05-21T09:37:31.718Z,23.65
2023-05-21T09:40:35.617Z,23.61
2023-05-21T09:43:38.945Z,23.59
2023-05-21T09:46:42.957Z,23.62
2023-05-21T09:49:45.922Z,23.61
2023-05-21T09:52:55.661Z,23.59
2023-05-21T09:55:59.926Z,23.57
2023-05-21T09:59:06.927Z,23.56
2023-05-21T10:02:23.475Z,23.61
2023-05-21T10:05:30.163Z,23.62
2023-05-21T10:08:36.949Z,23.64
2023-05-21T10:11:41.098Z,23.65
2023-05-21T10:14:51.180Z,23.65
2023-05-21T10:17:56.507Z,23.68
2023-05-21T10:21:01.161Z,23.71
2023-05-21T10:24:05.160Z,23.75
2023-05-21T10:27:08.177Z,23.74
2023-05-21T10:30:11.863Z,23.78
2023-05-21T10:33:17.183Z,23.84
2023-05-21T10:36:20.809Z,23.82
2023-05-21T10:39:25.657Z,23.83
2023-05-21T10:42:31.319Z,23.93
2023-05-21T10:45:51.342Z,24.07
2023-05-21T10:49:19.299Z,24.18
2023-05-21T10:52:32.206Z,24.27
2023-05-21T10:55:45.733Z,24.35
2023-05-21T10:58:57.818Z,24.32
2023-05-21T11:02:01.918Z,24.23
2023-05-21T11:05:05.398Z,24.15
2023-05-21T11:08:37.129Z,24.14
2023-05-21T11:11:50.964Z,24.17
2023-05-21T11:14:58.287Z,24.26
2023-05-21T11:18:01.404Z,24.40
2023-05-21T11:21:10.394Z,24.37
2023-05-21T11:24:19.435Z,24.18
2023-05-21T11:27:42.074Z,23.85
2023-05-21T11:31:27.014Z,23.63
2023-05-21T11:34:46.041Z,23.55
2023-05-21T11:37:54.031Z,23.62
2023-05-21T11:41:03.234Z,23.79
2023-05-21T11:44:09.109Z,24.00
2023-05-21T11:47:15.177Z,24.07
2023-05-21T11:50:18.900Z,24.04
2023-05-21T11:53:22.224Z,23.94
2023-05-21T11:56:25.950Z,23.86
2023-05-21T11:59:29.001Z,23.80
2023-05-21T12:02:33.081Z,23.75
2023-05-21T12:05:48.847Z,23.75
2023-05-21T12:08:52.797Z,23.85
2023-05-21T12:11:55.825Z,23.88
2023-05-21T12:14:59.391Z,23.95
2023-05-21T12:18:03.118Z,24.06
2023-05-21T12:21:07.059Z,24.17
2023-05-21T12:24:09.971Z,24.29
2023-05-21T12:27:13.925Z,24.31
2023-05-21T12:30:17.035Z,24.37
2023-05-21T12:33:20.125Z,24.41
2023-05-21T12:36:27.136Z,24.42
2023-05-21T12:39:31.520Z,24.49
2023-05-21T12:42:37.543Z,24.59
2023-05-21T12:45:40.966Z,24.75
2023-05-21T12:48:51.647Z,24.89
2023-05-21T12:51:57.140Z,24.98
2023-05-21T12:55:00.259Z,25.13
2023-05-21T12:58:08.790Z,25.15
2023-05-21T13:01:12.580Z,24.98
2023-05-21T13:04:15.644Z,24.80
2023-05-21T13:07:18.777Z,24.62
2023-05-21T13:10:21.846Z,24.53
2023-05-21T13:13:24.754Z,24.57
2023-05-21T13:16:27.758Z,24.53
2023-05-21T13:19:30.912Z,24.50
2023-05-21T13:22:34.300Z,24.69
2023-05-21T13:25:37.293Z,24.87
2023-05-21T13:28:42.399Z,25.21
2023-05-21T13:31:45.891Z,25.56
2023-05-21T13:34:48.820Z,25.71
2023-05-21T13:37:51.771Z,25.67
2023-05-21T13:40:54.757Z,25.55
2023-05-21T13:43:58.133Z,25.53
2023-05-21T13:47:01.170Z,25.56
2023-05-21T13:50:04.499Z,25.47
2023-05-21T13:53:07.445Z,25.30
2023-05-21T13:56:10.525Z,25.18
2023-05-21T13:59:13.474Z,25.25
2023-05-21T14:02:16.658Z,25.15
2023-05-21T14:05:19.730Z,25.03
2023-05-21T14:08:23.830Z,24.88
2023-05-21T14:11:28.184Z,24.84
2023-05-21T14:14:31.599Z,24.83
2023-05-21T14:17:34.586Z,24.82
2023-05-21T14:20:39.955Z,24.87
2023-05-21T14:23:42.953Z,24.94
2023-05-21T14:26:46.270Z,25.14
2023-05-21T14:29:49.345Z,25.27
2023-05-21T14:32:52.302Z,25.23
2023-05-21T14:35:55.419Z,25.04
2023-05-21T14:38:58.381Z,24.82
2023-05-21T14:42:04.794Z,24.66
2023-05-21T14:45:20.471Z,24.60
2023-05-21T14:48:24.168Z,24.52
2023-05-21T14:51:27.448Z,24.32
2023-05-21T14:54:30.531Z,24.15
2023-05-21T14:57:33.488Z,24.03
2023-05-21T15:00:37.002Z,23.91
2023-05-21T15:03:40.130Z,23.85
2023-05-21T15:06:43.182Z,23.85
2023-05-21T15:09:47.546Z,23.87
2023-05-21T15:12:51.422Z,23.84
2023-05-21T15:15:54.520Z,23.94
2023-05-21T15:18:57.640Z,24.05
2023-05-21T15:22:00.649Z,24.15
2023-05-21T15:25:04.264Z,24.26
2023-05-21T15:28:07.253Z,24.46
2023-05-21T15:31:10.416Z,24.68
2023-05-21T15:34:13.854Z,24.90
2023-05-21T15:37:17.231Z,25.07
2023-05-21T15:40:20.303Z,25.13
2023-05-21T15:43:23.261Z,25.14
2023-05-21T15:46:28.575Z,25.20
2023-05-21T15:49:31.611Z,25.14
2023-05-21T15:52:34.653Z,25.10
2023-05-21T15:55:37.992Z,25.07
2023-05-21T15:58:41.167Z,24.81
2023-05-21T16:01:44.570Z,24.55
2023-05-21T16:04:51.510Z,24.45
2023-05-21T16:07:54.769Z,24.50
2023-05-21T16:10:57.762Z,24.60
2023-05-21T16:14:00.867Z,24.60
2023-05-21T16:17:03.987Z,24.44
2023-05-21T16:20:07.770Z,24.30
2023-05-21T16:23:14.314Z,24.27
2023-05-21T16:26:17.474Z,24.28
2023-05-21T16:29:22.159Z,24.20
2023-05-21T16:32:25.617Z,24.06
2023-05-21T16:35:28.938Z,23.95
2023-05-21T16:38:32.290Z,23.90
2023-05-21T16:41:39.508Z,23.71
2023-05-21T16:45:43.379Z,23.56
2023-05-21T16:49:46.789Z,23.27
2023-05-21T16:57:20.894Z,23.01
2023-05-21T17:00:29.613Z,23.15
2023-05-21T17:03:33.736Z,23.19
2023-05-21T17:06:42.544Z,23.09
2023-05-21T17:10:02.121Z,23.10
2023-05-21T17:13:21.325Z,23.24
2023-05-21T17:16:29.711Z,23.51
2023-05-21T17:19:35.677Z,23.82
2023-05-21T17:22:39.576Z,23.95
2023-05-21T17:26:04.643Z,23.88
2023-05-21T17:29:07.345Z,23.70
2023-05-21T17:32:12.791Z,23.42
2023-05-21T17:35:19.366Z,23.03
2023-05-21T17:38:23.090Z,22.64
2023-05-21T17:41:28.538Z,22.27
2023-05-21T17:44:31.738Z,21.94
2023-05-21T17:47:35.605Z,21.62
2023-05-21T17:50:38.938Z,21.37
2023-05-21T17:53:41.978Z,21.16
2023-05-21T17:56:46.565Z,20.95
2023-05-21T17:59:50.124Z,20.81
2023-05-21T18:02:53.018Z,20.66
2023-05-21T18:05:56.801Z,20.52
2023-05-21T18:08:59.722Z,20.39
2023-05-21T18:12:04.500Z,20.26
2023-05-21T18:15:11.337Z,20.14
2023-05-21T18:18:19.755Z,20.00
2023-05-21T18:21:28.368Z,19.87
2023-05-21T18:24:31.408Z,19.73
2023-05-21T18:28:00.241Z,19.60
2023-05-21T18:31:27.198Z,19.47
2023-05-21T18:34:56.526Z,19.33
2023-05-21T18:38:00.159Z,19.19
2023-05-21T18:41:29.254Z,19.05
2023-05-21T18:44:41.388Z,18.89
2023-05-21T18:48:08.078Z,18.73
2023-05-21T18:51:36.674Z,18.59
2023-05-21T18:55:08.543Z,18.46
2023-05-21T18:58:23.963Z,18.35
2023-05-21T19:01:34.217Z,18.25
2023-05-21T19:04:52.847Z,18.17
2023-05-21T19:08:25.267Z,18.06
2023-05-21T19:11:45.239Z,17.94
2023-05-21T19:14:50.611Z,17.85
2023-05-21T19:18:15.219Z,17.76
2023-05-21T19:21:33.506Z,17.65
2023-05-21T19:25:01.006Z,17.54
2023-05-21T19:28:45.823Z,17.43
2023-05-21T19:32:04.116Z,17.35
2023-05-21T19:35:11.917Z,17.25
2023-05-21T19:38:50.095Z,17.16
2023-05-21T19:42:26.047Z,17.05
2023-05-21T19:45:34.103Z,16.95
2023-05-21T19:48:42.472Z,16.86
2023-05-21T19:52:10.666Z,16.76
2023-05-21T19:55:21.624Z,16.68
2023-05-21T19:58:30.497Z,16.59
2023-05-21T20:01:40.074Z,16.49
2023-05-21T20:04:43.999Z,16.39
2023-05-21T20:07:56.094Z,16.28
2023-05-21T20:11:10.360Z,16.19
2023-05-21T20:14:16.409Z,16.12
2023-05-21T20:17:42.217Z,16.05
2023-05-21T20:20:56.890Z,15.97
2023-05-21T20:24:22.674Z,15.90
2023-05-21T20:27:32.252Z,15.83
2023-05-21T20:31:13.279Z,15.79
2023-05-21T20:35:02.696Z,15.75
2023-05-21T20:38:47.381Z,15.68
2023-05-21T20:43:33.671Z,15.61
2023-05-21T20:47:23.599Z,15.56
2023-05-21T20:50:58.059Z,15.47
2023-05-21T20:54:23.332Z,15.40
2023-05-21T20:58:07.234Z,15.30
2023-05-21T21:01:18.769Z,15.23
2023-05-21T21:04:24.807Z,15.16
2023-05-21T21:08:15.324Z,15.10
2023-05-21T21:11:43.781Z,15.06
2023-05-21T21:15:28.759Z,15.02
2023-05-21T21:19:12.994Z,14.95
2023-05-21T21:22:49.614Z,14.89
2023-05-21T21:26:37.536Z,14.88
2023-05-21T21:30:09.283Z,14.84
2023-05-21T21:33:29.217Z,14.78
2023-05-21T21:36:54.204Z,14.72
2023-05-21T21:40:14.760Z,14.66
2023-05-21T21:43:40.250Z,14.56
2023-05-21T21:47:54.536Z,14.44
2023-05-21T21:51:16.937Z,14.36
2023-05-21T21:54:43.036Z,14.28
2023-05-21T21:58:02.132Z,14.20
2023-05-21T22:01:27.801Z,14.13
2023-05-21T22:05:09.410Z,13.98
2023-05-21T22:08:38.245Z,13.80
2023-05-21T22:12:39.158Z,13.66
2023-05-21T22:15:42.130Z,13.59
2023-05-21T22:19:13.556Z,13.60
2023-05-21T22:22:39.458Z,13.61
2023-05-21T22:25:59.423Z,13.57
2023-05-21T22:29:20.399Z,13.55
2023-05-21T22:32:46.935Z,13.50
2023-05-21T22:35:58.616Z,13.39
2023-05-21T22:39:19.840Z,13.25
2023-05-21T22:42:45.069Z,13.10
2023-05-21T22:46:22.460Z,12.96
2023-05-21T22:50:08.148Z,12.88
2023-05-21T22:53:49.632Z,12.78
2023-05-21T22:57:05.221Z,12.65
2023-05-21T23:00:31.927Z,12.62
2023-05-21T23:03:52.593Z,12.60
2023-05-21T23:07:27.157Z,12.57
2023-05-21T23:10:55.098Z,12.51
2023-05-21T23:14:16.753Z,12.41
2023-05-21T23:18:12.138Z,12.35
2023-05-21T23:21:47.390Z,12.33
2023-05-21T23:25:43.834Z,12.31
2023-05-21T23:28:58.762Z,12.24
2023-05-21T23:32:12.844Z,12.16
2023-05-21T23:35:59.419Z,12.07
2023-05-21T23:39:29.487Z,12.07
2023-05-21T23:42:59.067Z,12.02
2023-05-21T23:46:20.821Z,12.01
2023-05-21T23:50:24.343Z,11.99
2023-05-21T23:54:31.905Z,11.86
2023-05-21T23:57:51.655Z,11.69
